Main page
METAR-TAF:

METAR-TAF

Airports :

Waterbury–Oxford Airport

Oxford, Connecticut, United States

latitude: 41-29N, longitude: 073-08W, elevation: 728 ft

Current weather observation

The report was made 32 minutes ago, at 17:51 UTC
Wind 25 mph from the West with gusts up to 36 mph
Temperature 36°F
Humidity 51%
Pressure 29.42 in. Hg
Visibility: 10 miles
Scattered clouds at a height of 3500 ft
Broken clouds at a height of 4400 ft

METAR: KOXC 271751Z 27022G31KT 10SM SCT035 BKN044 02/M07 A2942 RMK AO2 PK WND 29031/1747 SLP977 60004 T00221072 10061 20022 50021

Time: 13:23 (18:23 UTC)


TAF: missing

Weather observations and forecasts of more than 4000 airports (METAR and TAF reports).

The available stations are represented by yellow and red dots on the map.

Hover mouse over dot to see the name of the station.

Then click to see weather observations and forecasts.

To change the map : click on the green buttons with a black cross to zoom in, on the green button with a dash to zoom out, or on the green arrows for adjacent maps.


METAR-TAF: